Time;durP1;ratioP1;P1;durP2;ratioP2;P2;SDS_P1;SDS_P2;PMS_P1;PMS_P2;Temp;Humidity;BMP_temperature;BMP_pressure;BME280_temperature;BME280_humidity;BME280_pressure;Samples;Min_cycle;Max_cycle;Signal;HPM_P1;HPM_P2
2023/03/02 00:01:56;;;;;;;80.90;36.37;;;0.80;99.90;;;;;;4799260;29;20225;-88
2023/03/02 00:04:30;;;;;;;77.60;34.90;;;0.70;99.90;;;;;;4797558;29;20325;-81
2023/03/02 00:07:05;;;;;;;76.17;34.43;;;0.80;99.90;;;;;;4816312;29;20233;-81
2023/03/02 00:09:32;;;;;;;77.87;36.13;;;0.80;99.90;;;;;;4802159;29;20221;-81
2023/03/02 00:12:00;;;;;;;73.80;34.23;;;0.90;99.90;;;;;;4795960;29;20199;-82
2023/03/02 00:14:27;;;;;;;77.27;35.10;;;1.00;99.90;;;;;;4815960;29;20202;-83
2023/03/02 00:16:54;;;;;;;80.17;34.27;;;1.00;99.90;;;;;;4792604;29;20557;-87
2023/03/02 00:19:21;;;;;;;80.97;35.73;;;1.00;99.90;;;;;;4791972;29;20204;-87
2023/03/02 00:21:48;;;;;;;80.97;34.97;;;1.00;99.90;;;;;;4809181;29;20223;-84
2023/03/02 00:24:15;;;;;;;82.93;36.60;;;1.00;99.90;;;;;;4810998;29;20298;-82
2023/03/02 00:26:42;;;;;;;76.60;35.63;;;0.90;99.90;;;;;;4792780;29;20242;-84
2023/03/02 00:29:09;;;;;;;86.03;36.97;;;0.90;99.90;;;;;;4809320;29;20859;-84
2023/03/02 00:31:37;;;;;;;78.77;35.23;;;0.90;99.90;;;;;;4793019;29;20199;-86
2023/03/02 00:34:04;;;;;;;82.03;36.77;;;0.90;99.90;;;;;;4812598;29;20210;-82
2023/03/02 00:36:31;;;;;;;78.13;35.40;;;0.90;99.90;;;;;;4799127;29;20276;-85
2023/03/02 00:38:59;;;;;;;82.20;36.10;;;0.90;99.90;;;;;;4811084;29;20283;-82
2023/03/02 00:41:26;;;;;;;78.37;36.40;;;0.80;99.90;;;;;;4800414;29;20200;-85
2023/03/02 00:43:56;;;;;;;82.03;37.27;;;0.80;99.90;;;;;;4799748;29;20235;-83
2023/03/02 00:46:24;;;;;;;84.97;37.47;;;0.70;99.90;;;;;;4800710;29;20202;-86
2023/03/02 00:48:51;;;;;;;91.13;36.60;;;0.70;99.90;;;;;;4818324;29;20204;-84
2023/03/02 00:54:48;;;;;;;82.53;35.33;;;0.70;99.90;;;;;;4866149;24;20245;-87
2023/03/02 00:57:17;;;;;;;89.33;36.73;;;0.70;99.90;;;;;;4806262;29;20215;-87
2023/03/02 00:59:44;;;;;;;83.70;36.70;;;0.60;99.90;;;;;;4823759;29;20653;-89
2023/03/02 01:02:15;;;;;;;86.70;36.27;;;0.60;99.90;;;;;;4815315;29;20219;-89
2023/03/02 01:04:43;;;;;;;82.13;36.30;;;0.60;99.90;;;;;;4796241;29;20230;-81
2023/03/02 01:07:16;;;;;;;81.20;36.67;;;0.60;99.90;;;;;;4797925;29;20273;-81
2023/03/02 01:09:44;;;;;;;84.27;36.77;;;0.60;99.90;;;;;;4807978;29;20207;-85
2023/03/02 01:12:11;;;;;;;84.43;38.53;;;0.40;99.90;;;;;;4828922;29;20601;-84
2023/03/02 01:14:43;;;;;;;87.57;39.30;;;0.30;99.90;;;;;;4814511;29;20203;-84
2023/03/02 01:17:10;;;;;;;86.90;38.03;;;0.10;99.90;;;;;;4802306;29;20207;-82
2023/03/02 01:19:39;;;;;;;90.07;39.07;;;0.10;99.90;;;;;;4816456;29;20688;-83
2023/03/02 01:22:07;;;;;;;90.50;39.40;;;0.10;99.90;;;;;;4817328;29;20266;-84
2023/03/02 01:24:34;;;;;;;87.77;38.73;;;0.20;99.90;;;;;;4807249;29;20225;-83
2023/03/02 01:27:01;;;;;;;91.00;39.03;;;0.20;99.90;;;;;;4792022;29;20207;-83
2023/03/02 01:29:28;;;;;;;89.03;39.00;;;0.30;99.90;;;;;;4792421;29;20577;-84
2023/03/02 01:31:55;;;;;;;83.93;36.53;;;0.30;99.90;;;;;;4807423;29;20230;-84
2023/03/02 01:34:22;;;;;;;85.33;37.53;;;0.40;99.90;;;;;;4800303;29;20208;-83
2023/03/02 01:36:49;;;;;;;85.87;37.97;;;0.40;99.90;;;;;;4790827;29;20215;-85
2023/03/02 01:39:16;;;;;;;84.63;37.00;;;0.50;99.90;;;;;;4808365;29;20689;-86
2023/03/02 01:41:44;;;;;;;89.97;38.87;;;0.40;99.90;;;;;;4800175;29;20217;-84
2023/03/02 01:44:35;;;;;;;84.27;37.83;;;0.40;99.90;;;;;;4799393;29;20231;-81
2023/03/02 01:47:05;;;;;;;81.87;37.03;;;0.30;99.90;;;;;;4797855;29;20231;-82
2023/03/02 01:49:36;;;;;;;81.40;37.30;;;0.40;99.90;;;;;;4805619;29;20326;-80
2023/03/02 01:52:03;;;;;;;82.57;37.20;;;0.40;99.90;;;;;;4791954;29;20200;-83
2023/03/02 01:54:30;;;;;;;85.40;36.03;;;0.40;99.90;;;;;;4807684;29;20706;-83
2023/03/02 01:57:00;;;;;;;79.30;36.20;;;0.50;99.90;;;;;;4790889;29;20753;-85
2023/03/02 01:59:30;;;;;;;88.07;39.43;;;0.40;99.90;;;;;;4791349;29;20636;-82
2023/03/02 02:02:02;;;;;;;79.17;34.83;;;0.50;99.90;;;;;;4792093;29;20196;-82
2023/03/02 02:04:31;;;;;;;75.23;34.43;;;0.50;99.90;;;;;;4791536;29;20220;-85
2023/03/02 02:07:02;;;;;;;72.80;34.07;;;0.60;99.90;;;;;;4790729;29;20203;-83
2023/03/02 02:09:43;;;;;;;81.00;32.70;;;0.60;99.90;;;;;;4796051;29;20327;-82
2023/03/02 02:12:16;;;;;;;76.97;31.37;;;0.70;99.90;;;;;;4799494;29;20184;-83
2023/03/02 02:14:43;;;;;;;68.03;30.80;;;0.70;99.90;;;;;;4796088;29;20217;-80
2023/03/02 02:17:11;;;;;;;72.93;31.00;;;0.70;99.90;;;;;;4790644;29;20646;-83
2023/03/02 02:20:22;;;;;;;63.87;28.33;;;0.80;99.90;;;;;;4790888;29;20623;-86
2023/03/02 02:23:11;;;;;;;67.33;27.97;;;0.70;99.90;;;;;;4810836;29;20747;-85
2023/03/02 02:25:44;;;;;;;69.40;26.37;;;0.70;99.90;;;;;;4793240;29;20192;-84
2023/03/02 02:28:18;;;;;;;63.90;26.73;;;0.70;99.90;;;;;;4775492;29;20208;-85
2023/03/02 02:30:46;;;;;;;58.87;24.77;;;0.70;99.90;;;;;;4789995;29;20211;-82
2023/03/02 02:33:22;;;;;;;64.90;25.03;;;0.80;99.90;;;;;;4789917;29;20200;-82
2023/03/02 02:35:54;;;;;;;66.37;25.00;;;0.90;99.90;;;;;;4789898;29;20238;-82
2023/03/02 02:38:23;;;;;;;65.20;24.67;;;0.90;99.90;;;;;;4795961;29;20219;-84
2023/03/02 02:40:55;;;;;;;60.73;24.40;;;0.90;99.90;;;;;;4795910;29;20210;-82
2023/03/02 02:43:22;;;;;;;59.93;24.17;;;1.00;99.90;;;;;;4790216;29;20231;-84
2023/03/02 02:45:54;;;;;;;63.50;24.50;;;0.90;99.90;;;;;;4775059;29;20200;-84
2023/03/02 02:48:25;;;;;;;65.93;24.00;;;0.90;99.90;;;;;;4790279;29;20224;-84
2023/03/02 02:51:00;;;;;;;57.77;22.20;;;1.00;99.90;;;;;;4789932;29;20200;-83
2023/03/02 02:53:34;;;;;;;62.03;23.27;;;0.90;99.90;;;;;;4805855;29;20753;-82
2023/03/02 02:56:03;;;;;;;61.03;23.00;;;0.80;99.90;;;;;;4789137;29;20208;-83
2023/03/02 02:58:44;;;;;;;63.40;23.53;;;0.90;99.90;;;;;;4789874;29;20559;-82
2023/03/02 03:01:14;;;;;;;56.17;21.93;;;0.90;99.90;;;;;;4791715;29;20203;-81
2023/03/02 03:03:48;;;;;;;55.97;22.67;;;1.00;99.90;;;;;;4813150;29;20219;-86
2023/03/02 03:06:18;;;;;;;55.10;21.00;;;1.00;99.90;;;;;;4799588;29;20230;-83
2023/03/02 03:08:45;;;;;;;54.23;21.90;;;0.90;99.90;;;;;;4790641;29;20210;-80
2023/03/02 03:11:23;;;;;;;55.53;21.00;;;0.90;99.90;;;;;;4789645;29;20205;-83
2023/03/02 03:13:56;;;;;;;56.37;20.67;;;0.90;99.90;;;;;;4791227;29;20237;-83
2023/03/02 03:16:25;;;;;;;58.83;21.93;;;1.00;99.90;;;;;;4807122;29;20561;-88
2023/03/02 03:21:45;;;;;;;60.80;22.57;;;1.20;99.90;;;;;;4767859;30;20263;-83
2023/03/02 03:24:23;;;;;;;55.53;21.37;;;1.20;99.90;;;;;;4753177;30;20240;-84
2023/03/02 03:26:50;;;;;;;64.50;22.33;;;1.30;99.90;;;;;;4754195;30;20200;-82
2023/03/02 03:29:18;;;;;;;56.83;21.87;;;1.30;99.90;;;;;;4753384;30;20209;-82
2023/03/02 03:31:45;;;;;;;62.80;23.03;;;1.30;99.90;;;;;;4753640;30;20220;-81
2023/03/02 03:34:13;;;;;;;59.53;22.07;;;1.40;99.90;;;;;;4753466;30;20701;-83
2023/03/02 03:36:42;;;;;;;58.13;22.67;;;1.40;99.90;;;;;;4755037;30;20219;-85
2023/03/02 03:39:10;;;;;;;63.40;22.53;;;1.40;99.90;;;;;;4769844;30;20205;-86
2023/03/02 03:41:37;;;;;;;56.53;22.83;;;1.50;99.90;;;;;;4759818;30;20201;-86
2023/03/02 03:44:04;;;;;;;56.93;21.23;;;1.50;99.90;;;;;;4768416;30;20596;-84
2023/03/02 03:46:34;;;;;;;60.43;22.23;;;1.50;99.90;;;;;;4756865;30;20201;-83
2023/03/02 03:49:04;;;;;;;60.70;22.80;;;1.60;99.90;;;;;;4775188;30;20283;-88
2023/03/02 03:51:34;;;;;;;57.77;23.03;;;1.60;99.90;;;;;;4754266;30;20254;-85
2023/03/02 03:54:04;;;;;;;61.63;22.33;;;1.60;99.90;;;;;;4956148;24;20242;-91
2023/03/02 03:56:37;;;;;;;58.40;22.90;;;1.60;99.90;;;;;;4780697;30;20220;-85
2023/03/02 03:59:07;;;;;;;60.30;22.23;;;1.60;99.90;;;;;;4790433;24;20826;-84
2023/03/02 04:01:43;;;;;;;55.07;22.07;;;1.70;99.90;;;;;;4805422;29;20256;-83
2023/03/02 04:04:17;;;;;;;57.63;22.00;;;1.60;99.90;;;;;;4804824;29;20230;-86
2023/03/02 04:06:51;;;;;;;61.83;22.37;;;1.70;99.90;;;;;;4806149;29;20204;-89
2023/03/02 04:09:18;;;;;;;60.30;23.00;;;1.70;99.90;;;;;;4805151;29;20302;-80
2023/03/02 04:11:47;;;;;;;60.90;22.20;;;1.80;99.90;;;;;;4804837;29;20214;-83
2023/03/02 04:14:15;;;;;;;57.67;22.97;;;1.80;99.90;;;;;;4805732;29;20555;-83
2023/03/02 04:16:43;;;;;;;61.87;23.60;;;1.80;99.90;;;;;;4804180;29;20239;-82
2023/03/02 04:19:11;;;;;;;58.17;23.07;;;1.80;99.90;;;;;;4804430;29;20208;-84
2023/03/02 04:21:41;;;;;;;63.20;24.13;;;1.80;99.90;;;;;;4808070;29;20232;-83
2023/03/02 04:24:09;;;;;;;58.83;22.40;;;1.80;99.90;;;;;;4807659;29;20232;-85
2023/03/02 04:26:37;;;;;;;65.63;24.37;;;1.80;99.90;;;;;;4788613;29;20216;-86
2023/03/02 04:29:06;;;;;;;60.90;22.73;;;1.80;99.90;;;;;;4771953;30;20236;-89
2023/03/02 04:31:35;;;;;;;59.93;23.73;;;1.80;99.90;;;;;;4786171;30;20204;-83
2023/03/02 04:34:03;;;;;;;63.20;23.07;;;1.80;99.90;;;;;;4787512;29;20208;-85
2023/03/02 04:36:31;;;;;;;60.20;23.13;;;1.80;99.90;;;;;;4789493;30;20202;-84
2023/03/02 04:38:59;;;;;;;56.60;21.70;;;1.90;99.90;;;;;;4799145;30;20328;-85
2023/03/02 04:41:25;;;;;;;56.60;22.43;;;1.90;99.90;;;;;;4791125;30;21120;-84
2023/03/02 04:43:52;;;;;;;61.47;22.40;;;1.80;99.90;;;;;;4793586;30;20611;-82
2023/03/02 04:46:23;;;;;;;61.10;23.53;;;1.80;99.90;;;;;;4802375;30;20211;-85
2023/03/02 04:48:51;;;;;;;59.40;22.33;;;1.80;99.90;;;;;;4790375;30;20231;-86
2023/03/02 04:51:26;;;;;;;58.70;23.27;;;1.90;99.90;;;;;;4800758;30;20280;-85
2023/03/02 04:53:55;;;;;;;62.00;23.50;;;1.90;99.90;;;;;;4791382;29;20578;-83
2023/03/02 04:56:22;;;;;;;59.77;23.47;;;1.90;99.90;;;;;;4788947;30;20659;-82
2023/03/02 04:58:50;;;;;;;61.80;23.20;;;1.90;99.90;;;;;;4774063;30;20352;-84
2023/03/02 05:01:18;;;;;;;57.73;22.63;;;2.00;99.90;;;;;;4791807;30;20284;-84
2023/03/02 05:03:45;;;;;;;60.17;23.03;;;2.00;99.90;;;;;;4789484;30;20235;-84
2023/03/02 05:06:13;;;;;;;56.40;21.63;;;1.90;99.90;;;;;;4789278;30;20227;-84
2023/03/02 05:08:40;;;;;;;53.40;21.13;;;1.90;99.90;;;;;;4808956;30;20196;-85
2023/03/02 05:11:07;;;;;;;50.87;21.07;;;1.80;99.90;;;;;;4789667;30;20211;-85
2023/03/02 05:13:34;;;;;;;50.67;20.30;;;2.00;99.90;;;;;;4788518;30;20208;-85
2023/03/02 05:16:02;;;;;;;52.67;21.03;;;1.90;99.90;;;;;;4774503;30;20208;-87
2023/03/02 05:18:30;;;;;;;45.93;19.83;;;2.00;99.90;;;;;;4774363;30;20201;-85
2023/03/02 05:20:57;;;;;;;49.00;19.23;;;2.10;99.90;;;;;;4790882;30;20219;-86
2023/03/02 05:23:24;;;;;;;49.83;19.67;;;2.10;99.90;;;;;;4788769;30;20236;-87
2023/03/02 05:25:54;;;;;;;46.80;18.87;;;2.20;99.90;;;;;;4773809;30;20694;-83
2023/03/02 05:28:22;;;;;;;49.03;19.63;;;2.10;99.90;;;;;;4789335;30;20311;-88
2023/03/02 05:30:50;;;;;;;45.60;19.30;;;2.10;99.90;;;;;;4793446;29;20231;-86
2023/03/02 05:33:17;;;;;;;47.10;18.47;;;2.10;99.90;;;;;;4775236;30;20211;-85
2023/03/02 05:35:45;;;;;;;43.40;18.47;;;2.10;99.90;;;;;;4790092;30;20302;-86
2023/03/02 05:38:12;;;;;;;43.60;18.07;;;2.20;99.90;;;;;;4789144;30;20209;-86
2023/03/02 05:40:41;;;;;;;48.97;19.40;;;2.20;99.90;;;;;;4792860;30;20221;-86
2023/03/02 05:43:09;;;;;;;43.87;18.50;;;2.10;99.90;;;;;;4788910;30;20208;-89
2023/03/02 05:45:50;;;;;;;49.27;19.23;;;2.10;99.90;;;;;;4788446;29;20684;-88
2023/03/02 05:48:17;;;;;;;48.90;19.63;;;2.10;99.90;;;;;;4788629;30;20654;-87
2023/03/02 05:50:44;;;;;;;45.90;19.40;;;2.10;99.90;;;;;;4788677;30;20303;-84
2023/03/02 05:53:12;;;;;;;47.97;19.23;;;2.20;99.90;;;;;;4791686;30;20215;-86
2023/03/02 05:55:39;;;;;;;44.77;19.30;;;2.20;99.90;;;;;;4789847;30;20285;-88
2023/03/02 05:58:10;;;;;;;45.20;18.60;;;2.30;99.90;;;;;;4791355;30;20263;-86
2023/03/02 06:00:37;;;;;;;47.50;19.00;;;2.30;99.90;;;;;;4790736;29;20226;-90
2023/03/02 06:03:07;;;;;;;47.90;19.53;;;2.30;99.90;;;;;;4776842;30;20201;-89
2023/03/02 06:05:36;;;;;;;41.60;18.10;;;2.30;99.90;;;;;;4792187;30;20220;-89
2023/03/02 06:08:04;;;;;;;44.47;18.40;;;2.30;99.90;;;;;;4804317;30;20197;-86
2023/03/02 06:10:32;;;;;;;43.13;18.37;;;2.40;99.90;;;;;;4797915;30;20326;-88
2023/03/02 06:13:00;;;;;;;43.07;17.77;;;2.40;99.90;;;;;;4810912;29;20199;-82
2023/03/02 06:15:28;;;;;;;47.97;18.83;;;2.40;99.90;;;;;;4796225;30;20217;-83
2023/03/02 06:18:35;;;;;;;45.13;18.63;;;2.30;99.90;;;;;;4802372;30;20208;-89
2023/03/02 06:21:14;;;;;;;46.33;18.13;;;2.40;99.90;;;;;;4788355;29;20216;-86
2023/03/02 06:23:41;;;;;;;46.63;18.87;;;2.40;99.90;;;;;;4789535;30;20234;-84
2023/03/02 06:26:10;;;;;;;46.27;19.43;;;2.30;99.90;;;;;;4788724;30;20299;-86
2023/03/02 06:28:38;;;;;;;44.27;19.23;;;2.40;99.90;;;;;;4788605;29;20526;-85
2023/03/02 06:31:18;;;;;;;45.67;18.50;;;2.40;99.90;;;;;;4812392;29;20208;-83
2023/03/02 06:33:45;;;;;;;44.53;18.30;;;2.50;99.90;;;;;;4773001;30;20219;-85
2023/03/02 06:36:13;;;;;;;46.40;19.17;;;2.50;99.90;;;;;;4787436;30;20636;-84
2023/03/02 06:38:40;;;;;;;47.40;19.47;;;2.60;99.90;;;;;;4787435;30;20242;-84
2023/03/02 06:41:08;;;;;;;43.67;19.70;;;2.60;99.90;;;;;;4787917;30;20303;-85
2023/03/02 06:43:34;;;;;;;50.23;19.40;;;2.60;99.90;;;;;;4803278;29;20264;-87
2023/03/02 06:46:02;;;;;;;44.10;19.20;;;2.60;99.90;;;;;;4790269;30;20277;-84
2023/03/02 06:48:29;;;;;;;46.43;19.33;;;2.50;99.90;;;;;;4789706;29;20223;-84
2023/03/02 06:50:56;;;;;;;47.23;19.17;;;2.50;99.90;;;;;;4787856;29;20308;-82
2023/03/02 06:53:23;;;;;;;47.13;19.53;;;2.40;99.90;;;;;;4788350;30;20208;-83
2023/03/02 06:55:50;;;;;;;49.53;19.73;;;2.40;99.90;;;;;;4793934;30;20209;-83
2023/03/02 06:58:17;;;;;;;47.10;19.33;;;2.50;99.90;;;;;;4788822;30;20297;-83
2023/03/02 07:00:44;;;;;;;44.47;18.97;;;2.50;99.90;;;;;;4787896;30;20218;-84
2023/03/02 07:03:11;;;;;;;46.83;19.67;;;2.50;99.90;;;;;;4791138;30;20207;-82
2023/03/02 07:05:39;;;;;;;48.93;20.23;;;2.50;99.90;;;;;;4788406;30;20212;-84
2023/03/02 07:08:06;;;;;;;48.17;20.13;;;2.50;99.90;;;;;;4789137;30;20198;-82
2023/03/02 07:10:33;;;;;;;46.30;19.47;;;2.50;99.90;;;;;;4797548;30;20199;-84
2023/03/02 07:13:00;;;;;;;48.17;19.87;;;2.50;99.90;;;;;;4772039;30;20288;-83
2023/03/02 07:15:27;;;;;;;46.70;19.90;;;2.50;99.90;;;;;;4787812;30;20210;-83
2023/03/02 07:17:54;;;;;;;45.47;19.90;;;2.50;99.90;;;;;;4791912;30;20212;-84
2023/03/02 07:20:21;;;;;;;49.10;19.93;;;2.60;99.90;;;;;;4797874;30;20197;-82
2023/03/02 07:22:49;;;;;;;43.97;19.80;;;2.50;99.90;;;;;;4790586;30;20230;-84
2023/03/02 07:25:16;;;;;;;45.30;18.47;;;2.50;99.90;;;;;;4787699;30;20225;-86
2023/03/02 07:27:43;;;;;;;51.40;20.63;;;2.50;99.90;;;;;;4786794;30;20209;-85
2023/03/02 07:30:10;;;;;;;52.27;21.03;;;2.60;99.90;;;;;;4772175;30;20701;-82
2023/03/02 07:32:37;;;;;;;46.30;19.57;;;2.50;99.90;;;;;;4787246;30;20204;-83
2023/03/02 07:35:05;;;;;;;45.57;19.97;;;2.50;99.90;;;;;;4804005;30;20288;-83
2023/03/02 07:37:32;;;;;;;50.03;20.27;;;2.50;99.90;;;;;;4789044;30;20192;-84
2023/03/02 07:39:58;;;;;;;47.27;19.30;;;2.50;99.90;;;;;;4804926;29;20248;-85
2023/03/02 07:42:29;;;;;;;50.47;20.33;;;2.50;99.90;;;;;;4790192;30;20279;-82
2023/03/02 07:44:56;;;;;;;51.00;20.03;;;2.50;99.90;;;;;;4803599;30;20229;-83
2023/03/02 07:47:23;;;;;;;53.60;21.13;;;2.60;99.90;;;;;;4787493;30;20215;-85
2023/03/02 07:49:50;;;;;;;50.87;20.00;;;2.50;99.90;;;;;;4775555;30;20212;-84
2023/03/02 07:52:17;;;;;;;56.93;21.83;;;2.50;99.90;;;;;;4788003;30;20540;-88
2023/03/02 07:54:44;;;;;;;49.53;19.67;;;2.50;99.90;;;;;;4787523;30;20219;-88
2023/03/02 07:57:14;;;;;;;54.53;21.17;;;2.50;99.90;;;;;;4787892;30;20197;-85
2023/03/02 07:59:42;;;;;;;53.80;19.80;;;2.50;99.90;;;;;;4786888;30;20236;-87
2023/03/02 08:02:16;;;;;;;48.20;19.50;;;2.50;99.90;;;;;;4787677;30;20215;-82
2023/03/02 08:04:43;;;;;;;47.53;19.63;;;2.50;99.90;;;;;;4786274;30;20235;-76
2023/03/02 08:07:09;;;;;;;49.30;19.70;;;2.50;99.90;;;;;;4793174;29;20208;-74
2023/03/02 08:09:38;;;;;;;46.67;19.13;;;2.60;99.90;;;;;;4787694;29;20573;-76
2023/03/02 08:12:05;;;;;;;48.07;19.17;;;2.60;99.90;;;;;;4789569;30;20238;-78
2023/03/02 08:14:32;;;;;;;46.03;19.37;;;2.60;99.90;;;;;;4788924;30;20200;-76
2023/03/02 08:16:59;;;;;;;47.77;19.73;;;2.60;99.90;;;;;;4788863;30;20739;-76
2023/03/02 08:19:30;;;;;;;45.27;19.50;;;2.60;99.90;;;;;;4789795;29;20611;-76
2023/03/02 08:21:57;;;;;;;46.57;18.87;;;2.60;99.90;;;;;;4788520;29;20313;-75
2023/03/02 08:24:24;;;;;;;44.90;19.03;;;2.60;99.90;;;;;;4791860;29;20664;-74
2023/03/02 08:26:51;;;;;;;44.40;18.67;;;2.60;99.90;;;;;;4797013;29;20202;-75
2023/03/02 08:29:18;;;;;;;44.73;18.80;;;2.60;99.90;;;;;;4792920;29;20226;-76
2023/03/02 08:31:45;;;;;;;46.83;19.00;;;2.70;99.90;;;;;;4790081;29;20213;-73
2023/03/02 08:34:11;;;;;;;43.53;18.03;;;2.60;99.90;;;;;;4789029;30;20669;-74
2023/03/02 08:36:42;;;;;;;47.20;18.83;;;2.60;99.90;;;;;;4773560;30;20210;-73
2023/03/02 08:39:10;;;;;;;46.07;19.27;;;2.60;99.90;;;;;;4789792;29;20193;-75
2023/03/02 08:41:37;;;;;;;42.53;18.33;;;2.70;99.90;;;;;;4794330;29;20729;-73
2023/03/02 08:44:04;;;;;;;41.37;17.70;;;2.70;99.90;;;;;;4788185;30;20718;-72
2023/03/02 08:46:31;;;;;;;42.97;17.83;;;2.80;99.90;;;;;;4788357;29;20209;-72
2023/03/02 08:48:58;;;;;;;42.57;18.93;;;2.80;99.90;;;;;;4789589;30;20213;-73
2023/03/02 08:51:26;;;;;;;43.63;18.37;;;2.80;99.90;;;;;;4789651;30;20209;-72
2023/03/02 08:53:54;;;;;;;45.03;17.83;;;2.90;99.90;;;;;;4788328;30;20249;-73
2023/03/02 08:56:28;;;;;;;44.50;17.97;;;2.90;99.90;;;;;;4788276;30;20544;-74
2023/03/02 08:59:01;;;;;;;45.97;18.83;;;3.00;99.90;;;;;;4788132;30;20263;-72
2023/03/02 09:01:34;;;;;;;44.47;18.07;;;3.00;99.90;;;;;;4773688;30;20677;-72
2023/03/02 09:04:05;;;;;;;45.07;18.80;;;3.00;99.90;;;;;;4788792;29;20221;-72
2023/03/02 09:06:35;;;;;;;41.83;17.87;;;3.10;99.90;;;;;;4799104;29;20299;-72
2023/03/02 09:09:03;;;;;;;40.47;17.63;;;3.00;99.90;;;;;;4788318;30;20215;-74
2023/03/02 09:11:30;;;;;;;42.37;17.97;;;3.20;99.90;;;;;;4789034;29;20693;-74
2023/03/02 09:13:58;;;;;;;43.70;18.13;;;3.10;99.90;;;;;;4795522;29;20231;-72
2023/03/02 09:16:25;;;;;;;42.03;17.60;;;3.10;99.90;;;;;;4798115;29;20648;-74
2023/03/02 09:18:53;;;;;;;51.10;22.05;;;3.10;99.90;;;;;;4805912;29;20801;-76
2023/03/02 09:21:21;;;;;;;44.40;18.80;;;3.10;99.90;;;;;;4799339;29;20707;-75
2023/03/02 09:23:52;;;;;;;43.33;17.80;;;3.10;99.90;;;;;;4788025;30;20200;-77
2023/03/02 09:26:22;;;;;;;41.23;18.40;;;3.20;99.90;;;;;;4787774;29;20222;-75
2023/03/02 09:28:49;;;;;;;45.47;18.73;;;3.20;99.90;;;;;;4789039;30;20197;-77
2023/03/02 09:31:16;;;;;;;40.73;17.63;;;3.30;99.90;;;;;;4789643;30;20248;-83
2023/03/02 09:33:43;;;;;;;44.80;18.37;;;3.20;99.90;;;;;;4791354;29;20224;-78
2023/03/02 09:36:16;;;;;;;42.37;18.67;;;3.30;99.90;;;;;;4787759;29;20228;-78
2023/03/02 09:38:43;;;;;;;43.72;19.58;;;3.30;99.90;;;;;;4787402;30;20479;-76
2023/03/02 09:44:28;;;;;;;37.47;16.17;;;3.30;99.90;;;;;;4837358;24;20329;-79
2023/03/02 09:47:49;;;;;;;44.37;17.37;;;3.30;99.90;;;;;;4737957;30;20321;-80
2023/03/02 09:50:24;;;;;;;37.13;16.63;;;3.30;99.90;;;;;;4751427;30;20206;-76
2023/03/02 09:53:07;;;;;;;37.27;15.70;;;3.30;99.90;;;;;;4735235;30;20709;-79
2023/03/02 09:55:35;;;;;;;37.10;16.27;;;3.30;99.90;;;;;;4719975;30;20687;-76
2023/03/02 09:58:13;;;;;;;37.53;15.87;;;3.30;99.90;;;;;;4719265;30;20248;-81
2023/03/02 10:00:45;;;;;;;36.23;15.80;;;3.40;99.90;;;;;;4719291;30;20225;-84
2023/03/02 10:03:27;;;;;;;32.53;15.20;;;3.40;99.90;;;;;;4738242;30;20219;-80
2023/03/02 10:05:55;;;;;;;34.20;15.10;;;3.40;99.90;;;;;;4750710;30;20244;-80
2023/03/02 10:08:26;;;;;;;33.53;15.10;;;3.40;99.90;;;;;;4735804;30;20202;-76
2023/03/02 10:11:15;;;;;;;32.80;15.37;;;3.40;99.90;;;;;;4721630;30;20577;-76
2023/03/02 10:13:59;;;;;;;33.80;15.87;;;3.40;99.90;;;;;;4735587;30;20226;-81
2023/03/02 10:16:52;;;;;;;38.10;16.73;;;3.30;99.90;;;;;;4804023;24;20265;-78
2023/03/02 10:20:14;;;;;;;43.53;18.23;;;3.30;99.90;;;;;;4797001;29;20210;-79
2023/03/02 10:26:05;;;;;;;42.63;18.83;;;3.30;99.90;;;;;;4829854;24;20766;-79
2023/03/02 10:28:40;;;;;;;48.67;18.83;;;3.30;99.90;;;;;;4793417;29;20212;-76
2023/03/02 10:31:22;;;;;;;62.10;25.80;;;3.40;99.90;;;;;;4813902;29;20536;-77
2023/03/02 10:33:52;;;;;;;55.63;23.43;;;3.30;99.90;;;;;;4826379;29;20295;-74
2023/03/02 10:36:28;;;;;;;62.03;29.33;;;3.20;99.90;;;;;;4796551;29;20452;-80
2023/03/02 10:38:59;;;;;;;45.70;21.47;;;3.30;99.90;;;;;;4811494;29;20324;-75
2023/03/02 10:41:35;;;;;;;48.53;20.97;;;3.40;99.90;;;;;;4807707;29;20202;-73
2023/03/02 10:44:25;;;;;;;36.93;16.90;;;3.40;99.90;;;;;;4807643;29;20200;-72
2023/03/02 10:46:52;;;;;;;34.67;15.97;;;3.30;99.90;;;;;;4807155;29;20200;-75
2023/03/02 10:49:30;;;;;;;21.27;10.40;;;3.40;99.90;;;;;;4808176;29;20324;-74
2023/03/02 10:52:02;;;;;;;20.57;10.30;;;3.40;99.90;;;;;;4807470;29;20239;-74
2023/03/02 10:54:32;;;;;;;16.07;8.80;;;3.10;99.90;;;;;;4792845;29;20529;-77
2023/03/02 10:57:04;;;;;;;16.47;8.50;;;3.10;99.90;;;;;;4793236;29;20570;-78
2023/03/02 10:59:44;;;;;;;17.40;9.98;;;3.00;99.90;;;;;;4790012;29;20449;-78
2023/03/02 11:02:16;;;;;;;13.40;6.90;;;3.00;99.90;;;;;;4805672;29;20204;-76
2023/03/02 11:04:43;;;;;;;12.90;7.03;;;2.70;99.90;;;;;;4805066;29;20714;-79
2023/03/02 11:07:18;;;;;;;12.97;6.87;;;2.70;99.90;;;;;;4789288;29;20277;-79
2023/03/02 11:10:01;;;;;;;13.23;7.07;;;2.90;99.90;;;;;;4789975;29;20216;-79
2023/03/02 11:12:33;;;;;;;14.33;7.73;;;3.10;99.90;;;;;;4800618;29;20214;-78
2023/03/02 11:15:20;;;;;;;14.60;7.27;;;3.30;99.90;;;;;;4791809;29;20226;-76
2023/03/02 11:18:00;;;;;;;14.77;7.63;;;3.50;99.90;;;;;;4759286;30;20207;-76
2023/03/02 11:20:31;;;;;;;13.90;7.20;;;3.60;99.90;;;;;;4752545;30;20319;-76
2023/03/02 11:23:29;;;;;;;13.13;6.63;;;3.60;99.90;;;;;;4765240;30;20238;-77
2023/03/02 11:26:15;;;;;;;9.50;4.93;;;3.80;99.90;;;;;;4773777;30;20254;-76
2023/03/02 11:28:42;;;;;;;10.67;4.93;;;3.90;99.90;;;;;;4752501;30;20720;-77
2023/03/02 11:31:21;;;;;;;10.38;6.07;;;4.00;99.90;;;;;;4751442;30;21157;-77
2023/03/02 11:34:04;;;;;;;9.93;5.17;;;4.10;99.90;;;;;;4764064;30;20209;-75
2023/03/02 11:36:43;;;;;;;9.57;4.90;;;4.30;99.90;;;;;;4769933;30;20580;-80
2023/03/02 11:39:21;;;;;;;7.93;4.33;;;4.40;99.90;;;;;;4769952;30;20280;-77
2023/03/02 11:41:52;;;;;;;7.27;4.30;;;4.50;99.90;;;;;;4755228;30;20268;-77
2023/03/02 11:44:20;;;;;;;9.07;4.57;;;4.70;99.90;;;;;;4769133;30;20335;-73
2023/03/02 11:46:52;;;;;;;9.57;5.10;;;4.60;99.90;;;;;;4771247;30;20421;-78
2023/03/02 11:49:30;;;;;;;9.53;5.07;;;4.70;99.90;;;;;;4786156;30;20304;-76
2023/03/02 11:51:59;;;;;;;10.07;5.07;;;4.70;99.90;;;;;;4754437;30;20679;-77
2023/03/02 11:54:33;;;;;;;8.00;4.70;;;4.90;99.90;;;;;;4772065;29;20288;-78
2023/03/02 11:57:00;;;;;;;7.83;4.33;;;5.00;99.90;;;;;;4805196;29;20218;-77
2023/03/02 11:59:28;;;;;;;8.30;4.43;;;5.00;99.90;;;;;;4804856;29;20201;-74
2023/03/02 12:01:58;;;;;;;10.03;4.57;;;5.00;99.90;;;;;;4804919;29;20234;-77
2023/03/02 12:04:31;;;;;;;8.73;4.83;;;4.70;99.90;;;;;;4804597;29;20206;-75
2023/03/02 12:07:00;;;;;;;10.87;5.57;;;4.70;99.90;;;;;;4804759;29;20625;-76
2023/03/02 12:09:32;;;;;;;9.60;5.33;;;4.70;99.90;;;;;;4788564;29;20209;-75
2023/03/02 12:12:19;;;;;;;10.17;5.73;;;4.70;99.90;;;;;;4788752;29;20218;-75
2023/03/02 12:14:46;;;;;;;11.98;6.53;;;4.70;99.90;;;;;;4772999;29;20550;-75
2023/03/02 12:17:31;;;;;;;10.60;5.53;;;4.70;99.90;;;;;;4788196;29;20212;-76
2023/03/02 12:20:23;;;;;;;9.87;5.23;;;4.70;99.90;;;;;;4788546;29;20197;-77
2023/03/02 12:22:50;;;;;;;9.73;5.20;;;4.70;99.90;;;;;;4788167;29;20237;-73
2023/03/02 12:25:20;;;;;;;8.70;4.97;;;4.80;99.90;;;;;;4772311;30;20239;-73
2023/03/02 12:27:50;;;;;;;11.27;5.57;;;4.80;99.90;;;;;;4767188;30;20214;-69
2023/03/02 12:30:22;;;;;;;14.33;5.97;;;4.80;99.90;;;;;;4768892;30;20288;-73
2023/03/02 12:33:10;;;;;;;10.03;5.67;;;4.80;99.90;;;;;;4767596;30;20561;-73
2023/03/02 12:35:37;;;;;;;11.07;5.60;;;4.90;99.90;;;;;;4768776;30;20671;-77
2023/03/02 12:38:31;;;;;;;11.50;6.17;;;5.10;99.90;;;;;;4752802;30;20201;-74
2023/03/02 12:41:25;;;;;;;11.80;6.30;;;5.10;99.90;;;;;;4752672;30;20265;-73
2023/03/02 12:44:11;;;;;;;11.77;6.03;;;5.10;99.90;;;;;;4738599;30;20286;-74
2023/03/02 12:46:43;;;;;;;11.90;6.10;;;5.10;99.90;;;;;;4768348;30;20223;-72
2023/03/02 12:49:40;;;;;;;11.70;6.20;;;5.00;99.90;;;;;;4768604;30;20672;-73
2023/03/02 12:52:32;;;;;;;11.00;6.20;;;4.90;99.90;;;;;;4768533;30;20694;-72
2023/03/02 12:55:16;;;;;;;12.70;6.40;;;4.90;99.90;;;;;;4753087;30;20205;-70
2023/03/02 12:57:51;;;;;;;13.13;7.10;;;4.60;99.90;;;;;;4755872;30;20248;-72
2023/03/02 13:00:21;;;;;;;15.73;6.27;;;4.90;99.90;;;;;;4772139;30;20209;-69
2023/03/02 13:02:51;;;;;;;14.87;6.53;;;5.20;99.90;;;;;;4755246;30;20217;-72
2023/03/02 13:05:28;;;;;;;14.50;7.27;;;5.40;99.90;;;;;;4755220;30;20313;-73
2023/03/02 13:08:00;;;;;;;12.67;6.90;;;5.50;99.90;;;;;;4755628;30;20208;-72
2023/03/02 13:10:40;;;;;;;14.50;7.20;;;4.70;99.90;;;;;;4755587;30;20722;-73
2023/03/02 13:13:34;;;;;;;14.43;7.17;;;4.70;99.90;;;;;;4755802;30;20207;-72